Aeroporto :
LOGIN :

Iscrizione | Disclaimer

   EN    FR    IT 

 










Sommario :    VFR   VFR Marginale   IFR   IFR Intensivo   IFR Molto Intensivo
Visibilità : 
Base nubi : 
>= 8 km
>= 3000ft
5 / 8 km
1000 / 3000 ft
1500m / 5 km
500 / 1000 ft
800 / 1500m
200 / 500 ft
< 800m
< 200 ft
Simboli :   Temporali  Nebbia  Neve Forte  Precipitazioni Forti  Vento > 20 kt
SIGMETs :   Varie  Temporali  Ghiacco  Turbolenza  Onda orograficha  Ceneri Vulcaniche






- Altitudine del aeroporto : 15 ft
- Codice IATA : GIB


LXGB - Gibraltar

ULTIMO METAR :
  • 171420Z 28013KT 9999 FEW025 21/13 Q1026 NOSIG RMK BLU BLU

METARs OBSOLETI :
  • 171350Z 28014KT 9999 FEW025 20/13 Q1026 NOSIG RMK BLU BLU
  • 171321Z 27014KT 9999 FEW025 20/13 Q1026 NOSIG RMK BLU BLU
  • 171250Z 27014KT CAVOK 19/13 Q1027 NOSIG RMK BLU BLU
  • 171220Z 27014KT CAVOK 19/13 Q1027 NOSIG RMK BLU BLU

TAF TAF LXGB
Valido dal 17 a 15 ore il 17 a 23 ore UTC


171335Z 1715/1723 27012KT CAVOK



MetMap, La meteo Aeronautica in un colpo d'occhio ! - Copyright ORBIFLY Dicembre 2007 - Disclaimer

ORBIFLY MET'MAP TEAM :

Programmazione e sviluppo : Alexandra Zaïnal
Concezione : Baudouin d'Aumeries
Aiuto per la programmazione : Marc-Olivier Méhu
Supporto tecnico e logistico : Manuel Goepfert
Aiuto per la traduzione : Arnaldo La Scala

Contatto : metmap@orbifly.com




FONTI E CREDITI :

   NOAA